sensor_id;sensor_type;location;lat;lon;timestamp;temperature;humidity
34406;DHT22;20658;45.630;8.886;2023-03-23T00:01:19;11.10;73.60
34406;DHT22;20658;45.630;8.886;2023-03-23T00:03:51;11.00;74.00
34406;DHT22;20658;45.630;8.886;2023-03-23T00:06:20;11.00;73.90
34406;DHT22;20658;45.630;8.886;2023-03-23T00:08:49;11.00;73.40
34406;DHT22;20658;45.630;8.886;2023-03-23T00:11:21;11.50;74.00
34406;DHT22;20658;45.630;8.886;2023-03-23T00:13:52;11.00;73.90
34406;DHT22;20658;45.630;8.886;2023-03-23T00:16:22;10.90;73.80
34406;DHT22;20658;45.630;8.886;2023-03-23T00:18:55;10.90;74.00
34406;DHT22;20658;45.630;8.886;2023-03-23T00:21:27;10.80;74.20
34406;DHT22;20658;45.630;8.886;2023-03-23T00:24:05;10.80;74.20
34406;DHT22;20658;45.630;8.886;2023-03-23T00:26:36;10.80;74.20
34406;DHT22;20658;45.630;8.886;2023-03-23T00:29:07;11.10;75.00
34406;DHT22;20658;45.630;8.886;2023-03-23T00:31:44;10.90;75.50
34406;DHT22;20658;45.630;8.886;2023-03-23T00:34:14;10.70;75.80
34406;DHT22;20658;45.630;8.886;2023-03-23T00:36:45;10.70;76.00
34406;DHT22;20658;45.630;8.886;2023-03-23T00:39:14;11.10;76.80
34406;DHT22;20658;45.630;8.886;2023-03-23T00:41:45;10.60;77.10
34406;DHT22;20658;45.630;8.886;2023-03-23T00:44:13;10.60;77.60
34406;DHT22;20658;45.630;8.886;2023-03-23T00:46:42;10.50;77.60
34406;DHT22;20658;45.630;8.886;2023-03-23T00:49:16;10.50;77.90
34406;DHT22;20658;45.630;8.886;2023-03-23T00:51:46;10.40;77.50
34406;DHT22;20658;45.630;8.886;2023-03-23T00:54:13;10.40;77.70
34406;DHT22;20658;45.630;8.886;2023-03-23T00:56:41;10.30;77.40
34406;DHT22;20658;45.630;8.886;2023-03-23T00:59:09;10.30;77.40
34406;DHT22;20658;45.630;8.886;2023-03-23T01:01:37;10.20;77.70
34406;DHT22;20658;45.630;8.886;2023-03-23T01:04:04;10.20;78.00
34406;DHT22;20658;45.630;8.886;2023-03-23T01:06:34;10.20;78.00
34406;DHT22;20658;45.630;8.886;2023-03-23T01:09:33;10.20;78.00
34406;DHT22;20658;45.630;8.886;2023-03-23T01:12:01;10.20;78.10
34406;DHT22;20658;45.630;8.886;2023-03-23T01:14:33;10.20;78.60
34406;DHT22;20658;45.630;8.886;2023-03-23T01:17:00;10.60;78.50
34406;DHT22;20658;45.630;8.886;2023-03-23T01:19:28;10.10;78.50
34406;DHT22;20658;45.630;8.886;2023-03-23T01:21:55;10.50;78.80
34406;DHT22;20658;45.630;8.886;2023-03-23T01:24:23;10.40;78.80
34406;DHT22;20658;45.630;8.886;2023-03-23T01:32:14;10.10;78.60
34406;DHT22;20658;45.630;8.886;2023-03-23T01:34:41;10.10;78.60
34406;DHT22;20658;45.630;8.886;2023-03-23T01:37:08;10.10;78.80
34406;DHT22;20658;45.630;8.886;2023-03-23T01:39:36;10.60;79.20
34406;DHT22;20658;45.630;8.886;2023-03-23T01:42:03;10.00;78.90
34406;DHT22;20658;45.630;8.886;2023-03-23T01:48:04;10.00;79.00
34406;DHT22;20658;45.630;8.886;2023-03-23T01:50:39;10.00;78.70
34406;DHT22;20658;45.630;8.886;2023-03-23T01:53:12;10.40;79.40
34406;DHT22;20658;45.630;8.886;2023-03-23T01:55:41;10.00;79.30
34406;DHT22;20658;45.630;8.886;2023-03-23T01:58:11;10.40;79.70
34406;DHT22;20658;45.630;8.886;2023-03-23T02:00:38;9.90;79.80
34406;DHT22;20658;45.630;8.886;2023-03-23T02:03:11;9.90;80.00
34406;DHT22;20658;45.630;8.886;2023-03-23T02:05:42;9.80;80.10
34406;DHT22;20658;45.630;8.886;2023-03-23T02:08:17;9.90;80.40
34406;DHT22;20658;45.630;8.886;2023-03-23T02:10:46;9.80;80.20
34406;DHT22;20658;45.630;8.886;2023-03-23T02:13:43;9.80;80.20
34406;DHT22;20658;45.630;8.886;2023-03-23T02:16:15;9.80;80.30
34406;DHT22;20658;45.630;8.886;2023-03-23T02:18:57;9.80;80.50
34406;DHT22;20658;45.630;8.886;2023-03-23T02:24:56;9.80;80.60
34406;DHT22;20658;45.630;8.886;2023-03-23T02:27:50;9.80;80.60
34406;DHT22;20658;45.630;8.886;2023-03-23T02:30:58;9.80;80.40
34406;DHT22;20658;45.630;8.886;2023-03-23T02:33:40;9.80;80.00
34406;DHT22;20658;45.630;8.886;2023-03-23T02:36:20;9.80;79.90
34406;DHT22;20658;45.630;8.886;2023-03-23T02:38:57;10.10;79.90
34406;DHT22;20658;45.630;8.886;2023-03-23T02:41:31;9.80;79.60
34406;DHT22;20658;45.630;8.886;2023-03-23T02:44:03;9.80;79.40
34406;DHT22;20658;45.630;8.886;2023-03-23T02:46:32;9.80;79.60
34406;DHT22;20658;45.630;8.886;2023-03-23T02:49:06;10.20;80.10
34406;DHT22;20658;45.630;8.886;2023-03-23T02:51:35;10.10;80.30
34406;DHT22;20658;45.630;8.886;2023-03-23T02:54:04;9.70;80.30
34406;DHT22;20658;45.630;8.886;2023-03-23T02:56:33;9.70;80.40
34406;DHT22;20658;45.630;8.886;2023-03-23T02:59:04;9.70;80.60
34406;DHT22;20658;45.630;8.886;2023-03-23T03:01:57;9.70;80.40
34406;DHT22;20658;45.630;8.886;2023-03-23T03:04:31;9.70;80.70
34406;DHT22;20658;45.630;8.886;2023-03-23T03:10:06;9.70;80.50
34406;DHT22;20658;45.630;8.886;2023-03-23T03:12:45;9.70;80.60
34406;DHT22;20658;45.630;8.886;2023-03-23T03:15:22;9.80;80.60
34406;DHT22;20658;45.630;8.886;2023-03-23T03:18:23;9.60;80.50
34406;DHT22;20658;45.630;8.886;2023-03-23T03:20:57;9.60;80.90
34406;DHT22;20658;45.630;8.886;2023-03-23T03:23:28;9.60;81.10
34406;DHT22;20658;45.630;8.886;2023-03-23T03:26:01;10.10;81.90
34406;DHT22;20658;45.630;8.886;2023-03-23T03:28:42;9.80;81.80
34406;DHT22;20658;45.630;8.886;2023-03-23T03:31:15;9.60;81.80
34406;DHT22;20658;45.630;8.886;2023-03-23T03:33:45;10.00;82.10
34406;DHT22;20658;45.630;8.886;2023-03-23T03:36:18;9.60;82.00
34406;DHT22;20658;45.630;8.886;2023-03-23T03:38:49;9.50;82.40
34406;DHT22;20658;45.630;8.886;2023-03-23T03:41:18;9.60;82.30
34406;DHT22;20658;45.630;8.886;2023-03-23T03:43:47;9.90;82.60
34406;DHT22;20658;45.630;8.886;2023-03-23T03:46:14;9.80;82.80
34406;DHT22;20658;45.630;8.886;2023-03-23T03:48:41;9.60;82.90
34406;DHT22;20658;45.630;8.886;2023-03-23T03:51:08;9.60;82.70
34406;DHT22;20658;45.630;8.886;2023-03-23T03:53:40;9.60;82.70
34406;DHT22;20658;45.630;8.886;2023-03-23T03:56:07;9.60;82.80
34406;DHT22;20658;45.630;8.886;2023-03-23T03:58:42;9.60;82.70
34406;DHT22;20658;45.630;8.886;2023-03-23T04:01:21;9.60;82.90
34406;DHT22;20658;45.630;8.886;2023-03-23T04:03:50;9.60;82.90
34406;DHT22;20658;45.630;8.886;2023-03-23T04:06:36;9.70;83.00
34406;DHT22;20658;45.630;8.886;2023-03-23T04:09:05;9.60;82.90
34406;DHT22;20658;45.630;8.886;2023-03-23T04:11:34;9.60;82.90
34406;DHT22;20658;45.630;8.886;2023-03-23T04:14:20;9.60;82.90
34406;DHT22;20658;45.630;8.886;2023-03-23T04:16:47;9.60;82.80
34406;DHT22;20658;45.630;8.886;2023-03-23T04:19:22;9.60;83.00
34406;DHT22;20658;45.630;8.886;2023-03-23T04:21:50;9.60;83.10
34406;DHT22;20658;45.630;8.886;2023-03-23T04:24:19;9.60;83.20
34406;DHT22;20658;45.630;8.886;2023-03-23T04:26:49;9.70;83.40
34406;DHT22;20658;45.630;8.886;2023-03-23T04:29:24;9.60;83.20
34406;DHT22;20658;45.630;8.886;2023-03-23T04:32:24;9.60;83.30
34406;DHT22;20658;45.630;8.886;2023-03-23T04:34:55;9.60;83.00
34406;DHT22;20658;45.630;8.886;2023-03-23T04:37:28;9.60;83.00
34406;DHT22;20658;45.630;8.886;2023-03-23T04:39:58;9.60;83.10
34406;DHT22;20658;45.630;8.886;2023-03-23T04:42:28;10.00;83.50
34406;DHT22;20658;45.630;8.886;2023-03-23T04:45:16;9.60;83.40
34406;DHT22;20658;45.630;8.886;2023-03-23T04:47:50;9.70;83.50
34406;DHT22;20658;45.630;8.886;2023-03-23T04:50:29;9.70;83.60
34406;DHT22;20658;45.630;8.886;2023-03-23T04:53:04;10.20;84.00
34406;DHT22;20658;45.630;8.886;2023-03-23T04:55:35;9.70;84.00
34406;DHT22;20658;45.630;8.886;2023-03-23T04:58:05;9.60;84.30
34406;DHT22;20658;45.630;8.886;2023-03-23T05:00:38;9.60;84.30
34406;DHT22;20658;45.630;8.886;2023-03-23T05:03:06;9.60;84.50
34406;DHT22;20658;45.630;8.886;2023-03-23T05:05:35;9.60;84.50
34406;DHT22;20658;45.630;8.886;2023-03-23T05:08:35;9.60;84.80
34406;DHT22;20658;45.630;8.886;2023-03-23T05:11:06;9.60;84.80
34406;DHT22;20658;45.630;8.886;2023-03-23T05:13:37;9.60;85.00
34406;DHT22;20658;45.630;8.886;2023-03-23T05:16:06;9.60;85.10
34406;DHT22;20658;45.630;8.886;2023-03-23T05:18:36;9.60;85.20
34406;DHT22;20658;45.630;8.886;2023-03-23T05:21:07;9.60;85.40
34406;DHT22;20658;45.630;8.886;2023-03-23T05:23:38;9.60;85.20
34406;DHT22;20658;45.630;8.886;2023-03-23T05:26:15;9.60;85.20
34406;DHT22;20658;45.630;8.886;2023-03-23T05:28:43;9.60;85.40
34406;DHT22;20658;45.630;8.886;2023-03-23T05:31:17;9.60;85.20
34406;DHT22;20658;45.630;8.886;2023-03-23T05:33:45;9.70;85.30
34406;DHT22;20658;45.630;8.886;2023-03-23T05:36:27;9.70;85.40
34406;DHT22;20658;45.630;8.886;2023-03-23T05:39:07;9.70;85.20
34406;DHT22;20658;45.630;8.886;2023-03-23T05:42:09;10.30;85.50
34406;DHT22;20658;45.630;8.886;2023-03-23T05:44:51;9.70;86.50
34406;DHT22;20658;45.630;8.886;2023-03-23T05:47:19;9.70;86.20
34406;DHT22;20658;45.630;8.886;2023-03-23T05:49:52;9.80;85.90
34406;DHT22;20658;45.630;8.886;2023-03-23T05:52:21;9.80;85.60
34406;DHT22;20658;45.630;8.886;2023-03-23T05:54:51;9.90;85.70
34406;DHT22;20658;45.630;8.886;2023-03-23T05:57:21;9.90;85.90
34406;DHT22;20658;45.630;8.886;2023-03-23T06:00:01;10.30;86.10
34406;DHT22;20658;45.630;8.886;2023-03-23T06:02:50;9.90;86.10
34406;DHT22;20658;45.630;8.886;2023-03-23T06:05:30;10.00;86.20
34406;DHT22;20658;45.630;8.886;2023-03-23T06:07:58;10.00;86.40
34406;DHT22;20658;45.630;8.886;2023-03-23T06:10:26;10.00;86.60
34406;DHT22;20658;45.630;8.886;2023-03-23T06:12:59;10.00;87.30
34406;DHT22;20658;45.630;8.886;2023-03-23T06:15:38;10.10;87.00
34406;DHT22;20658;45.630;8.886;2023-03-23T06:18:16;10.70;87.30
34406;DHT22;20658;45.630;8.886;2023-03-23T06:21:06;10.40;87.00
34406;DHT22;20658;45.630;8.886;2023-03-23T06:23:47;10.20;87.10
34406;DHT22;20658;45.630;8.886;2023-03-23T06:26:18;10.20;87.80
34406;DHT22;20658;45.630;8.886;2023-03-23T06:28:53;10.20;87.80
34406;DHT22;20658;45.630;8.886;2023-03-23T06:31:20;10.30;87.80
34406;DHT22;20658;45.630;8.886;2023-03-23T06:33:49;10.30;87.80
34406;DHT22;20658;45.630;8.886;2023-03-23T06:36:17;10.70;88.00
34406;DHT22;20658;45.630;8.886;2023-03-23T06:38:56;10.70;88.10
34406;DHT22;20658;45.630;8.886;2023-03-23T06:41:33;10.50;87.70
34406;DHT22;20658;45.630;8.886;2023-03-23T06:44:02;11.00;87.70
34406;DHT22;20658;45.630;8.886;2023-03-23T06:46:31;10.70;87.30
34406;DHT22;20658;45.630;8.886;2023-03-23T06:49:28;10.80;87.50
34406;DHT22;20658;45.630;8.886;2023-03-23T06:52:04;11.20;87.70
34406;DHT22;20658;45.630;8.886;2023-03-23T06:54:32;10.90;87.50
34406;DHT22;20658;45.630;8.886;2023-03-23T06:57:01;11.00;87.10
34406;DHT22;20658;45.630;8.886;2023-03-23T06:59:32;11.10;86.70
34406;DHT22;20658;45.630;8.886;2023-03-23T07:02:00;11.20;85.80
34406;DHT22;20658;45.630;8.886;2023-03-23T07:04:28;11.30;85.50
34406;DHT22;20658;45.630;8.886;2023-03-23T07:07:05;11.70;85.40
34406;DHT22;20658;45.630;8.886;2023-03-23T07:09:40;11.50;85.00
34406;DHT22;20658;45.630;8.886;2023-03-23T07:12:08;11.60;84.40
34406;DHT22;20658;45.630;8.886;2023-03-23T07:14:43;11.60;84.30
34406;DHT22;20658;45.630;8.886;2023-03-23T07:17:10;11.70;84.50
34406;DHT22;20658;45.630;8.886;2023-03-23T07:19:47;12.20;84.40
34406;DHT22;20658;45.630;8.886;2023-03-23T07:22:16;11.90;84.30
34406;DHT22;20658;45.630;8.886;2023-03-23T07:24:49;11.90;84.30
34406;DHT22;20658;45.630;8.886;2023-03-23T07:27:27;12.10;83.90
34406;DHT22;20658;45.630;8.886;2023-03-23T07:29:59;12.40;83.10
34406;DHT22;20658;45.630;8.886;2023-03-23T07:32:26;12.60;82.70
34406;DHT22;20658;45.630;8.886;2023-03-23T07:34:54;12.80;82.10
34406;DHT22;20658;45.630;8.886;2023-03-23T07:37:30;12.70;81.20
34406;DHT22;20658;45.630;8.886;2023-03-23T07:39:58;12.80;80.40
34406;DHT22;20658;45.630;8.886;2023-03-23T07:42:26;13.00;80.30
34406;DHT22;20658;45.630;8.886;2023-03-23T07:45:00;13.00;79.80
34406;DHT22;20658;45.630;8.886;2023-03-23T07:47:27;13.30;79.40
34406;DHT22;20658;45.630;8.886;2023-03-23T07:49:55;13.20;79.20
34406;DHT22;20658;45.630;8.886;2023-03-23T07:52:27;13.30;79.60
34406;DHT22;20658;45.630;8.886;2023-03-23T07:54:56;13.40;79.60
34406;DHT22;20658;45.630;8.886;2023-03-23T07:57:32;13.40;79.10
34406;DHT22;20658;45.630;8.886;2023-03-23T08:00:01;13.50;79.20
34406;DHT22;20658;45.630;8.886;2023-03-23T08:02:43;13.50;78.50
34406;DHT22;20658;45.630;8.886;2023-03-23T08:05:30;13.40;79.00
34406;DHT22;20658;45.630;8.886;2023-03-23T08:08:18;13.20;79.30
34406;DHT22;20658;45.630;8.886;2023-03-23T08:11:04;13.10;80.30
34406;DHT22;20658;45.630;8.886;2023-03-23T08:13:37;12.90;81.00
34406;DHT22;20658;45.630;8.886;2023-03-23T08:16:30;12.90;81.90
34406;DHT22;20658;45.630;8.886;2023-03-23T08:19:36;12.90;82.20
34406;DHT22;20658;45.630;8.886;2023-03-23T08:22:29;12.90;82.40
34406;DHT22;20658;45.630;8.886;2023-03-23T08:25:23;13.00;82.50
34406;DHT22;20658;45.630;8.886;2023-03-23T08:28:17;13.40;81.40
34406;DHT22;20658;45.630;8.886;2023-03-23T08:31:13;13.80;80.10
34406;DHT22;20658;45.630;8.886;2023-03-23T08:34:16;14.00;78.90
34406;DHT22;20658;45.630;8.886;2023-03-23T08:37:02;14.40;77.90
34406;DHT22;20658;45.630;8.886;2023-03-23T08:39:51;14.60;77.40
34406;DHT22;20658;45.630;8.886;2023-03-23T08:42:52;14.80;76.00
34406;DHT22;20658;45.630;8.886;2023-03-23T08:45:45;15.30;74.60
34406;DHT22;20658;45.630;8.886;2023-03-23T08:48:32;15.00;74.00
34406;DHT22;20658;45.630;8.886;2023-03-23T08:51:21;15.20;73.10
34406;DHT22;20658;45.630;8.886;2023-03-23T08:54:08;15.30;72.80
34406;DHT22;20658;45.630;8.886;2023-03-23T08:56:54;15.40;72.40
34406;DHT22;20658;45.630;8.886;2023-03-23T08:59:42;15.50;72.50
34406;DHT22;20658;45.630;8.886;2023-03-23T09:02:21;15.70;71.30
34406;DHT22;20658;45.630;8.886;2023-03-23T09:05:01;16.00;71.10
34406;DHT22;20658;45.630;8.886;2023-03-23T09:07:57;16.20;69.70
34406;DHT22;20658;45.630;8.886;2023-03-23T09:10:26;16.40;68.40
34406;DHT22;20658;45.630;8.886;2023-03-23T09:12:56;16.40;68.60
34406;DHT22;20658;45.630;8.886;2023-03-23T09:15:23;16.60;67.90
34406;DHT22;20658;45.630;8.886;2023-03-23T09:17:52;16.40;68.00
34406;DHT22;20658;45.630;8.886;2023-03-23T09:20:24;16.60;68.00
34406;DHT22;20658;45.630;8.886;2023-03-23T09:22:54;16.80;66.80
34406;DHT22;20658;45.630;8.886;2023-03-23T09:25:27;16.80;67.00
34406;DHT22;20658;45.630;8.886;2023-03-23T09:27:56;16.90;66.00
34406;DHT22;20658;45.630;8.886;2023-03-23T09:30:26;17.10;65.80
34406;DHT22;20658;45.630;8.886;2023-03-23T09:32:55;17.20;65.00
34406;DHT22;20658;45.630;8.886;2023-03-23T09:35:23;17.30;64.30
34406;DHT22;20658;45.630;8.886;2023-03-23T09:37:52;17.40;64.00
34406;DHT22;20658;45.630;8.886;2023-03-23T09:40:22;17.60;64.30
34406;DHT22;20658;45.630;8.886;2023-03-23T09:43:07;17.70;64.00
34406;DHT22;20658;45.630;8.886;2023-03-23T09:45:46;17.90;63.00
34406;DHT22;20658;45.630;8.886;2023-03-23T09:48:33;18.00;61.80
34406;DHT22;20658;45.630;8.886;2023-03-23T09:51:18;17.90;62.00
34406;DHT22;20658;45.630;8.886;2023-03-23T09:53:52;17.70;62.50
34406;DHT22;20658;45.630;8.886;2023-03-23T09:56:29;17.80;62.10
34406;DHT22;20658;45.630;8.886;2023-03-23T09:59:02;17.80;62.00
34406;DHT22;20658;45.630;8.886;2023-03-23T10:01:38;17.90;61.90
34406;DHT22;20658;45.630;8.886;2023-03-23T10:04:13;18.30;61.10
34406;DHT22;20658;45.630;8.886;2023-03-23T10:06:43;18.50;60.40
34406;DHT22;20658;45.630;8.886;2023-03-23T10:09:15;18.80;59.70
34406;DHT22;20658;45.630;8.886;2023-03-23T10:11:54;18.80;59.00
34406;DHT22;20658;45.630;8.886;2023-03-23T10:14:32;18.90;59.30
34406;DHT22;20658;45.630;8.886;2023-03-23T10:17:13;19.10;58.00
34406;DHT22;20658;45.630;8.886;2023-03-23T10:19:47;19.00;57.30
34406;DHT22;20658;45.630;8.886;2023-03-23T10:22:25;19.00;57.20
34406;DHT22;20658;45.630;8.886;2023-03-23T10:25:01;19.20;57.00
34406;DHT22;20658;45.630;8.886;2023-03-23T10:27:39;19.40;56.90
34406;DHT22;20658;45.630;8.886;2023-03-23T10:30:16;19.40;56.60
34406;DHT22;20658;45.630;8.886;2023-03-23T10:32:50;19.30;56.50
34406;DHT22;20658;45.630;8.886;2023-03-23T10:35:22;19.30;56.40
34406;DHT22;20658;45.630;8.886;2023-03-23T10:37:56;19.10;56.30
34406;DHT22;20658;45.630;8.886;2023-03-23T10:40:29;19.30;55.50
34406;DHT22;20658;45.630;8.886;2023-03-23T10:42:59;19.60;55.60
34406;DHT22;20658;45.630;8.886;2023-03-23T10:45:29;19.80;55.10
34406;DHT22;20658;45.630;8.886;2023-03-23T10:48:17;20.10;54.10
34406;DHT22;20658;45.630;8.886;2023-03-23T10:50:50;20.30;53.60
34406;DHT22;20658;45.630;8.886;2023-03-23T10:53:21;20.30;53.20
34406;DHT22;20658;45.630;8.886;2023-03-23T10:55:50;20.00;54.20
34406;DHT22;20658;45.630;8.886;2023-03-23T10:58:27;20.20;53.60
34406;DHT22;20658;45.630;8.886;2023-03-23T11:00:56;20.10;53.40
34406;DHT22;20658;45.630;8.886;2023-03-23T11:03:33;20.30;53.10
34406;DHT22;20658;45.630;8.886;2023-03-23T11:06:07;20.40;52.10
34406;DHT22;20658;45.630;8.886;2023-03-23T11:08:46;20.50;52.50
34406;DHT22;20658;45.630;8.886;2023-03-23T11:11:17;20.70;52.10
34406;DHT22;20658;45.630;8.886;2023-03-23T11:13:50;20.60;52.30
34406;DHT22;20658;45.630;8.886;2023-03-23T11:16:25;20.20;52.90
34406;DHT22;20658;45.630;8.886;2023-03-23T11:18:53;19.80;53.70
34406;DHT22;20658;45.630;8.886;2023-03-23T11:21:22;19.70;54.70
34406;DHT22;20658;45.630;8.886;2023-03-23T11:23:52;19.90;54.00
34406;DHT22;20658;45.630;8.886;2023-03-23T11:26:23;20.30;52.80
34406;DHT22;20658;45.630;8.886;2023-03-23T11:28:55;20.30;52.30
34406;DHT22;20658;45.630;8.886;2023-03-23T11:31:27;20.40;51.90
34406;DHT22;20658;45.630;8.886;2023-03-23T11:33:57;20.50;51.50
34406;DHT22;20658;45.630;8.886;2023-03-23T11:36:31;20.40;52.20
34406;DHT22;20658;45.630;8.886;2023-03-23T11:39:01;20.50;52.00
34406;DHT22;20658;45.630;8.886;2023-03-23T11:41:33;20.40;52.30
34406;DHT22;20658;45.630;8.886;2023-03-23T11:44:11;20.30;52.70
34406;DHT22;20658;45.630;8.886;2023-03-23T11:46:45;20.20;52.30
34406;DHT22;20658;45.630;8.886;2023-03-23T11:49:24;20.50;52.60
34406;DHT22;20658;45.630;8.886;2023-03-23T11:52:03;20.90;51.80
34406;DHT22;20658;45.630;8.886;2023-03-23T11:54:39;21.10;51.00
34406;DHT22;20658;45.630;8.886;2023-03-23T11:57:09;21.00;50.50
34406;DHT22;20658;45.630;8.886;2023-03-23T11:59:39;21.00;50.70
34406;DHT22;20658;45.630;8.886;2023-03-23T12:02:26;21.00;50.50
34406;DHT22;20658;45.630;8.886;2023-03-23T12:05:37;20.90;51.00
34406;DHT22;20658;45.630;8.886;2023-03-23T12:08:21;20.90;51.00
34406;DHT22;20658;45.630;8.886;2023-03-23T12:11:05;20.90;51.00
34406;DHT22;20658;45.630;8.886;2023-03-23T12:13:56;20.90;51.00
34406;DHT22;20658;45.630;8.886;2023-03-23T12:16:44;21.10;49.60
34406;DHT22;20658;45.630;8.886;2023-03-23T12:19:25;21.30;49.60
34406;DHT22;20658;45.630;8.886;2023-03-23T12:22:04;20.90;49.70
34406;DHT22;20658;45.630;8.886;2023-03-23T12:24:48;20.80;50.20
34406;DHT22;20658;45.630;8.886;2023-03-23T12:27:25;21.20;49.80
34406;DHT22;20658;45.630;8.886;2023-03-23T12:33:08;21.30;48.80
34406;DHT22;20658;45.630;8.886;2023-03-23T12:35:49;21.10;48.00
34406;DHT22;20658;45.630;8.886;2023-03-23T12:38:41;21.00;48.80
34406;DHT22;20658;45.630;8.886;2023-03-23T12:41:17;21.30;49.20
34406;DHT22;20658;45.630;8.886;2023-03-23T12:43:50;21.60;47.60
34406;DHT22;20658;45.630;8.886;2023-03-23T12:46:51;21.50;47.70
34406;DHT22;20658;45.630;8.886;2023-03-23T12:49:39;21.70;47.30
34406;DHT22;20658;45.630;8.886;2023-03-23T12:52:13;21.60;47.00
34406;DHT22;20658;45.630;8.886;2023-03-23T12:54:45;21.50;46.90
34406;DHT22;20658;45.630;8.886;2023-03-23T12:57:20;21.30;46.70
34406;DHT22;20658;45.630;8.886;2023-03-23T12:59:56;21.50;46.00
34406;DHT22;20658;45.630;8.886;2023-03-23T13:02:30;21.80;44.70
34406;DHT22;20658;45.630;8.886;2023-03-23T13:05:05;21.90;45.30
34406;DHT22;20658;45.630;8.886;2023-03-23T13:07:42;21.90;45.10
34406;DHT22;20658;45.630;8.886;2023-03-23T13:10:17;21.70;44.70
34406;DHT22;20658;45.630;8.886;2023-03-23T13:12:49;21.70;46.30
34406;DHT22;20658;45.630;8.886;2023-03-23T13:15:25;21.70;46.70
34406;DHT22;20658;45.630;8.886;2023-03-23T13:18:04;21.90;46.20
34406;DHT22;20658;45.630;8.886;2023-03-23T13:20:54;21.80;45.60
34406;DHT22;20658;45.630;8.886;2023-03-23T13:23:28;21.90;45.40
34406;DHT22;20658;45.630;8.886;2023-03-23T13:26:00;22.00;44.70
34406;DHT22;20658;45.630;8.886;2023-03-23T13:28:30;21.90;44.50
34406;DHT22;20658;45.630;8.886;2023-03-23T13:31:02;21.40;44.50
34406;DHT22;20658;45.630;8.886;2023-03-23T13:33:33;21.50;45.70
34406;DHT22;20658;45.630;8.886;2023-03-23T13:36:09;21.80;45.40
34406;DHT22;20658;45.630;8.886;2023-03-23T13:38:44;21.80;45.80
34406;DHT22;20658;45.630;8.886;2023-03-23T13:41:15;21.90;45.70
34406;DHT22;20658;45.630;8.886;2023-03-23T13:43:47;22.10;45.20
34406;DHT22;20658;45.630;8.886;2023-03-23T13:46:28;21.90;45.00
34406;DHT22;20658;45.630;8.886;2023-03-23T13:49:14;21.90;44.70
34406;DHT22;20658;45.630;8.886;2023-03-23T13:52:01;21.60;45.80
34406;DHT22;20658;45.630;8.886;2023-03-23T13:54:43;21.80;46.20
34406;DHT22;20658;45.630;8.886;2023-03-23T13:57:36;22.00;45.50
34406;DHT22;20658;45.630;8.886;2023-03-23T14:03:19;22.20;45.00
34406;DHT22;20658;45.630;8.886;2023-03-23T14:06:03;22.20;43.80
34406;DHT22;20658;45.630;8.886;2023-03-23T14:08:48;22.20;43.70
34406;DHT22;20658;45.630;8.886;2023-03-23T14:11:20;22.20;42.80
34406;DHT22;20658;45.630;8.886;2023-03-23T14:14:01;22.20;43.60
34406;DHT22;20658;45.630;8.886;2023-03-23T14:16:37;22.10;44.10
34406;DHT22;20658;45.630;8.886;2023-03-23T14:19:15;22.20;43.60
34406;DHT22;20658;45.630;8.886;2023-03-23T14:21:51;22.10;43.80
34406;DHT22;20658;45.630;8.886;2023-03-23T14:24:23;22.20;43.00
34406;DHT22;20658;45.630;8.886;2023-03-23T14:26:52;22.00;43.50
34406;DHT22;20658;45.630;8.886;2023-03-23T14:29:21;21.90;43.90
34406;DHT22;20658;45.630;8.886;2023-03-23T14:31:54;21.80;44.00
34406;DHT22;20658;45.630;8.886;2023-03-23T14:34:24;21.90;44.50
34406;DHT22;20658;45.630;8.886;2023-03-23T14:36:53;22.20;44.80
34406;DHT22;20658;45.630;8.886;2023-03-23T14:39:25;22.20;44.70
34406;DHT22;20658;45.630;8.886;2023-03-23T14:41:55;21.90;45.80
34406;DHT22;20658;45.630;8.886;2023-03-23T14:44:26;21.80;46.10
34406;DHT22;20658;45.630;8.886;2023-03-23T14:46:57;21.70;46.00
34406;DHT22;20658;45.630;8.886;2023-03-23T14:49:34;22.00;45.90
34406;DHT22;20658;45.630;8.886;2023-03-23T14:52:08;22.10;45.70
34406;DHT22;20658;45.630;8.886;2023-03-23T14:54:38;22.10;46.10
34406;DHT22;20658;45.630;8.886;2023-03-23T14:57:12;22.00;45.40
34406;DHT22;20658;45.630;8.886;2023-03-23T14:59:41;22.00;45.90
34406;DHT22;20658;45.630;8.886;2023-03-23T15:02:12;22.00;45.80
34406;DHT22;20658;45.630;8.886;2023-03-23T15:04:44;22.10;45.80
34406;DHT22;20658;45.630;8.886;2023-03-23T15:07:14;22.20;45.50
34406;DHT22;20658;45.630;8.886;2023-03-23T15:09:45;22.40;45.30
34406;DHT22;20658;45.630;8.886;2023-03-23T15:12:20;22.40;44.80
34406;DHT22;20658;45.630;8.886;2023-03-23T15:14:53;22.30;44.60
34406;DHT22;20658;45.630;8.886;2023-03-23T15:17:24;22.20;44.70
34406;DHT22;20658;45.630;8.886;2023-03-23T15:19:53;22.10;44.30
34406;DHT22;20658;45.630;8.886;2023-03-23T15:22:23;22.00;44.40
34406;DHT22;20658;45.630;8.886;2023-03-23T15:25:01;21.70;45.10
34406;DHT22;20658;45.630;8.886;2023-03-23T15:27:33;21.70;45.50
34406;DHT22;20658;45.630;8.886;2023-03-23T15:30:28;21.70;45.60
34406;DHT22;20658;45.630;8.886;2023-03-23T15:33:02;21.90;45.50
34406;DHT22;20658;45.630;8.886;2023-03-23T15:35:34;21.90;45.50
34406;DHT22;20658;45.630;8.886;2023-03-23T15:38:05;21.80;45.40
34406;DHT22;20658;45.630;8.886;2023-03-23T15:40:36;21.80;45.20
34406;DHT22;20658;45.630;8.886;2023-03-23T15:43:07;21.90;45.50
34406;DHT22;20658;45.630;8.886;2023-03-23T15:45:35;21.90;45.10
34406;DHT22;20658;45.630;8.886;2023-03-23T15:48:11;21.80;45.10
34406;DHT22;20658;45.630;8.886;2023-03-23T15:50:40;21.60;45.60
34406;DHT22;20658;45.630;8.886;2023-03-23T15:53:21;21.60;45.60
34406;DHT22;20658;45.630;8.886;2023-03-23T15:55:54;21.50;46.00
34406;DHT22;20658;45.630;8.886;2023-03-23T15:58:21;21.30;46.10
34406;DHT22;20658;45.630;8.886;2023-03-23T16:00:50;21.20;46.20
34406;DHT22;20658;45.630;8.886;2023-03-23T16:03:25;21.10;46.40
34406;DHT22;20658;45.630;8.886;2023-03-23T16:05:59;21.00;46.50
34406;DHT22;20658;45.630;8.886;2023-03-23T16:08:29;21.00;46.60
34406;DHT22;20658;45.630;8.886;2023-03-23T16:11:04;21.00;46.40
34406;DHT22;20658;45.630;8.886;2023-03-23T16:13:38;20.90;46.30
34406;DHT22;20658;45.630;8.886;2023-03-23T16:16:12;20.90;46.40
34406;DHT22;20658;45.630;8.886;2023-03-23T16:18:48;21.00;46.20
34406;DHT22;20658;45.630;8.886;2023-03-23T16:21:22;20.90;45.90
34406;DHT22;20658;45.630;8.886;2023-03-23T16:23:55;20.70;45.40
34406;DHT22;20658;45.630;8.886;2023-03-23T16:26:30;20.70;45.80
34406;DHT22;20658;45.630;8.886;2023-03-23T16:28:58;20.60;45.80
34406;DHT22;20658;45.630;8.886;2023-03-23T16:31:28;20.60;45.50
34406;DHT22;20658;45.630;8.886;2023-03-23T16:34:02;20.60;45.50
34406;DHT22;20658;45.630;8.886;2023-03-23T16:36:35;20.50;45.40
34406;DHT22;20658;45.630;8.886;2023-03-23T16:39:09;20.50;45.60
34406;DHT22;20658;45.630;8.886;2023-03-23T16:41:45;20.50;45.70
34406;DHT22;20658;45.630;8.886;2023-03-23T16:44:18;20.50;46.00
34406;DHT22;20658;45.630;8.886;2023-03-23T16:46:52;20.50;46.40